sensor_id;sensor_type;location;lat;lon;timestamp;temperature;humidity
19437;DHT22;9854;50.968;4.168;2023-03-26T00:00:45;10.20;99.90
19437;DHT22;9854;50.968;4.168;2023-03-26T00:03:15;10.30;99.90
19437;DHT22;9854;50.968;4.168;2023-03-26T00:05:42;10.40;99.90
19437;DHT22;9854;50.968;4.168;2023-03-26T00:08:08;10.30;99.90
19437;DHT22;9854;50.968;4.168;2023-03-26T00:10:35;10.20;99.90
19437;DHT22;9854;50.968;4.168;2023-03-26T00:13:03;10.30;99.90
19437;DHT22;9854;50.968;4.168;2023-03-26T00:15:28;10.30;99.90
19437;DHT22;9854;50.968;4.168;2023-03-26T00:17:54;10.40;99.90
19437;DHT22;9854;50.968;4.168;2023-03-26T00:20:21;10.50;99.90
19437;DHT22;9854;50.968;4.168;2023-03-26T00:22:47;10.70;99.90
19437;DHT22;9854;50.968;4.168;2023-03-26T00:25:13;10.70;99.90
19437;DHT22;9854;50.968;4.168;2023-03-26T00:27:39;10.80;99.90
19437;DHT22;9854;50.968;4.168;2023-03-26T00:30:06;10.80;99.90
19437;DHT22;9854;50.968;4.168;2023-03-26T00:32:32;10.90;99.90
19437;DHT22;9854;50.968;4.168;2023-03-26T00:34:58;10.80;99.90
19437;DHT22;9854;50.968;4.168;2023-03-26T00:37:26;10.70;99.90
19437;DHT22;9854;50.968;4.168;2023-03-26T00:39:55;10.60;99.90
19437;DHT22;9854;50.968;4.168;2023-03-26T00:42:28;10.60;99.90
19437;DHT22;9854;50.968;4.168;2023-03-26T00:44:54;10.80;99.90
19437;DHT22;9854;50.968;4.168;2023-03-26T00:47:23;10.70;99.90
19437;DHT22;9854;50.968;4.168;2023-03-26T00:49:49;10.70;99.90
19437;DHT22;9854;50.968;4.168;2023-03-26T00:52:15;10.50;99.90
19437;DHT22;9854;50.968;4.168;2023-03-26T00:54:44;10.60;99.90
19437;DHT22;9854;50.968;4.168;2023-03-26T00:57:10;10.50;99.90
19437;DHT22;9854;50.968;4.168;2023-03-26T00:59:38;10.60;99.90
19437;DHT22;9854;50.968;4.168;2023-03-26T01:02:04;10.90;99.90
19437;DHT22;9854;50.968;4.168;2023-03-26T01:04:32;11.00;99.90
19437;DHT22;9854;50.968;4.168;2023-03-26T01:07:09;11.00;99.90
19437;DHT22;9854;50.968;4.168;2023-03-26T01:09:39;10.80;99.90
19437;DHT22;9854;50.968;4.168;2023-03-26T01:12:12;10.80;99.90
19437;DHT22;9854;50.968;4.168;2023-03-26T01:14:40;10.80;99.90
19437;DHT22;9854;50.968;4.168;2023-03-26T01:17:07;10.80;99.90
19437;DHT22;9854;50.968;4.168;2023-03-26T01:22:07;10.70;99.90
19437;DHT22;9854;50.968;4.168;2023-03-26T01:24:36;10.60;99.90
19437;DHT22;9854;50.968;4.168;2023-03-26T01:27:26;10.60;99.90
19437;DHT22;9854;50.968;4.168;2023-03-26T01:32:54;10.90;99.90
19437;DHT22;9854;50.968;4.168;2023-03-26T01:35:28;10.70;99.90
19437;DHT22;9854;50.968;4.168;2023-03-26T01:40:36;10.60;99.90
19437;DHT22;9854;50.968;4.168;2023-03-26T01:45:51;10.90;99.90
19437;DHT22;9854;50.968;4.168;2023-03-26T01:48:17;11.00;99.90
19437;DHT22;9854;50.968;4.168;2023-03-26T01:50:43;11.00;99.90
19437;DHT22;9854;50.968;4.168;2023-03-26T01:53:10;11.10;99.90
19437;DHT22;9854;50.968;4.168;2023-03-26T02:04:34;11.10;99.90
19437;DHT22;9854;50.968;4.168;2023-03-26T02:09:44;11.00;99.90
19437;DHT22;9854;50.968;4.168;2023-03-26T02:12:13;11.20;99.90
19437;DHT22;9854;50.968;4.168;2023-03-26T02:14:39;11.40;99.90
19437;DHT22;9854;50.968;4.168;2023-03-26T02:17:06;11.30;99.90
19437;DHT22;9854;50.968;4.168;2023-03-26T02:19:34;11.30;99.90
19437;DHT22;9854;50.968;4.168;2023-03-26T02:22:00;11.30;99.90
19437;DHT22;9854;50.968;4.168;2023-03-26T02:24:26;11.20;99.90
19437;DHT22;9854;50.968;4.168;2023-03-26T02:26:51;11.20;99.90
19437;DHT22;9854;50.968;4.168;2023-03-26T02:29:17;11.20;99.90
19437;DHT22;9854;50.968;4.168;2023-03-26T02:31:45;11.10;99.90
19437;DHT22;9854;50.968;4.168;2023-03-26T02:34:13;11.00;99.90
19437;DHT22;9854;50.968;4.168;2023-03-26T02:36:39;10.90;99.90
19437;DHT22;9854;50.968;4.168;2023-03-26T02:39:08;10.90;99.90
19437;DHT22;9854;50.968;4.168;2023-03-26T02:41:36;10.90;99.90
19437;DHT22;9854;50.968;4.168;2023-03-26T02:44:02;11.00;99.90
19437;DHT22;9854;50.968;4.168;2023-03-26T02:46:28;11.10;99.90
19437;DHT22;9854;50.968;4.168;2023-03-26T02:48:54;11.00;99.90
19437;DHT22;9854;50.968;4.168;2023-03-26T02:51:20;11.00;99.90
19437;DHT22;9854;50.968;4.168;2023-03-26T02:53:45;11.00;99.90
19437;DHT22;9854;50.968;4.168;2023-03-26T02:56:11;11.00;99.90
19437;DHT22;9854;50.968;4.168;2023-03-26T02:58:38;11.00;99.90
19437;DHT22;9854;50.968;4.168;2023-03-26T03:01:04;10.90;99.90
19437;DHT22;9854;50.968;4.168;2023-03-26T03:03:30;10.90;99.90
19437;DHT22;9854;50.968;4.168;2023-03-26T03:05:56;10.80;99.90
19437;DHT22;9854;50.968;4.168;2023-03-26T03:08:24;10.80;99.90
19437;DHT22;9854;50.968;4.168;2023-03-26T03:11:02;11.00;99.90
19437;DHT22;9854;50.968;4.168;2023-03-26T03:13:28;11.00;99.90
19437;DHT22;9854;50.968;4.168;2023-03-26T03:15:55;11.00;99.90
19437;DHT22;9854;50.968;4.168;2023-03-26T03:18:20;10.90;99.90
19437;DHT22;9854;50.968;4.168;2023-03-26T03:20:46;10.90;99.90
19437;DHT22;9854;50.968;4.168;2023-03-26T03:23:12;10.90;99.90
19437;DHT22;9854;50.968;4.168;2023-03-26T03:25:38;11.00;99.90
19437;DHT22;9854;50.968;4.168;2023-03-26T03:28:05;10.90;99.90
19437;DHT22;9854;50.968;4.168;2023-03-26T03:30:31;11.00;99.90
19437;DHT22;9854;50.968;4.168;2023-03-26T03:32:56;11.00;99.90
19437;DHT22;9854;50.968;4.168;2023-03-26T03:35:23;11.00;99.90
19437;DHT22;9854;50.968;4.168;2023-03-26T03:37:49;11.10;99.90
19437;DHT22;9854;50.968;4.168;2023-03-26T03:40:15;11.00;99.90
19437;DHT22;9854;50.968;4.168;2023-03-26T03:42:41;11.00;99.90
19437;DHT22;9854;50.968;4.168;2023-03-26T03:45:07;10.90;99.90
19437;DHT22;9854;50.968;4.168;2023-03-26T03:47:33;11.00;99.90
19437;DHT22;9854;50.968;4.168;2023-03-26T03:49:58;11.00;99.90
19437;DHT22;9854;50.968;4.168;2023-03-26T03:52:25;11.10;99.90
19437;DHT22;9854;50.968;4.168;2023-03-26T03:54:51;11.00;99.90
19437;DHT22;9854;50.968;4.168;2023-03-26T03:57:17;11.00;99.90
19437;DHT22;9854;50.968;4.168;2023-03-26T03:59:43;11.10;99.90
19437;DHT22;9854;50.968;4.168;2023-03-26T04:02:09;10.90;99.90
19437;DHT22;9854;50.968;4.168;2023-03-26T04:04:35;11.00;99.90
19437;DHT22;9854;50.968;4.168;2023-03-26T04:07:03;11.00;99.90
19437;DHT22;9854;50.968;4.168;2023-03-26T04:09:28;10.80;99.90
19437;DHT22;9854;50.968;4.168;2023-03-26T04:11:54;10.90;99.90
19437;DHT22;9854;50.968;4.168;2023-03-26T04:14:20;11.00;99.90
19437;DHT22;9854;50.968;4.168;2023-03-26T04:16:46;11.10;99.90
19437;DHT22;9854;50.968;4.168;2023-03-26T04:19:14;11.10;99.90
19437;DHT22;9854;50.968;4.168;2023-03-26T04:21:39;11.20;99.90
19437;DHT22;9854;50.968;4.168;2023-03-26T04:24:08;11.30;99.90
19437;DHT22;9854;50.968;4.168;2023-03-26T04:26:34;11.20;99.90
19437;DHT22;9854;50.968;4.168;2023-03-26T04:29:02;11.20;99.90
19437;DHT22;9854;50.968;4.168;2023-03-26T04:31:29;11.20;99.90
19437;DHT22;9854;50.968;4.168;2023-03-26T04:34:21;11.10;99.90
19437;DHT22;9854;50.968;4.168;2023-03-26T04:36:51;10.90;99.90
19437;DHT22;9854;50.968;4.168;2023-03-26T04:39:20;10.90;99.90
19437;DHT22;9854;50.968;4.168;2023-03-26T04:41:48;10.90;99.90
19437;DHT22;9854;50.968;4.168;2023-03-26T04:44:13;11.00;99.90
19437;DHT22;9854;50.968;4.168;2023-03-26T04:46:41;10.90;99.90
19437;DHT22;9854;50.968;4.168;2023-03-26T04:49:08;11.00;99.90
19437;DHT22;9854;50.968;4.168;2023-03-26T04:51:38;11.00;99.90
19437;DHT22;9854;50.968;4.168;2023-03-26T04:54:09;10.90;99.90
19437;DHT22;9854;50.968;4.168;2023-03-26T04:59:14;10.80;99.90
19437;DHT22;9854;50.968;4.168;2023-03-26T05:01:41;10.90;99.90
19437;DHT22;9854;50.968;4.168;2023-03-26T05:04:11;10.90;99.90
19437;DHT22;9854;50.968;4.168;2023-03-26T05:06:38;11.10;99.90
19437;DHT22;9854;50.968;4.168;2023-03-26T05:09:04;11.30;99.90
19437;DHT22;9854;50.968;4.168;2023-03-26T05:11:29;11.30;99.90
19437;DHT22;9854;50.968;4.168;2023-03-26T05:13:55;11.20;99.90
19437;DHT22;9854;50.968;4.168;2023-03-26T05:16:22;11.10;99.90
19437;DHT22;9854;50.968;4.168;2023-03-26T05:18:49;10.90;99.90
19437;DHT22;9854;50.968;4.168;2023-03-26T05:21:16;11.00;99.90
19437;DHT22;9854;50.968;4.168;2023-03-26T05:23:41;11.00;99.90
19437;DHT22;9854;50.968;4.168;2023-03-26T05:26:08;11.00;99.90
19437;DHT22;9854;50.968;4.168;2023-03-26T05:28:34;10.90;99.90
19437;DHT22;9854;50.968;4.168;2023-03-26T05:31:00;10.80;99.90
19437;DHT22;9854;50.968;4.168;2023-03-26T05:33:27;10.70;99.90
19437;DHT22;9854;50.968;4.168;2023-03-26T05:36:08;10.60;99.90
19437;DHT22;9854;50.968;4.168;2023-03-26T05:38:34;10.60;99.90
19437;DHT22;9854;50.968;4.168;2023-03-26T05:41:02;10.50;99.90
19437;DHT22;9854;50.968;4.168;2023-03-26T05:43:29;10.50;99.90
19437;DHT22;9854;50.968;4.168;2023-03-26T05:45:55;10.50;99.90
19437;DHT22;9854;50.968;4.168;2023-03-26T05:48:21;10.50;99.90
19437;DHT22;9854;50.968;4.168;2023-03-26T05:50:48;10.50;99.90
19437;DHT22;9854;50.968;4.168;2023-03-26T05:53:14;10.40;99.90
19437;DHT22;9854;50.968;4.168;2023-03-26T05:55:40;10.40;99.90
19437;DHT22;9854;50.968;4.168;2023-03-26T05:58:06;10.40;99.90
19437;DHT22;9854;50.968;4.168;2023-03-26T06:00:32;10.50;99.90
19437;DHT22;9854;50.968;4.168;2023-03-26T06:02:58;10.60;99.90
19437;DHT22;9854;50.968;4.168;2023-03-26T06:05:23;10.60;99.90
19437;DHT22;9854;50.968;4.168;2023-03-26T06:07:50;10.80;99.90
19437;DHT22;9854;50.968;4.168;2023-03-26T06:10:16;10.80;99.90
19437;DHT22;9854;50.968;4.168;2023-03-26T06:12:42;10.80;99.90
19437;DHT22;9854;50.968;4.168;2023-03-26T06:15:08;10.80;99.90
19437;DHT22;9854;50.968;4.168;2023-03-26T06:17:34;10.80;99.90
19437;DHT22;9854;50.968;4.168;2023-03-26T06:20:00;10.80;99.90
19437;DHT22;9854;50.968;4.168;2023-03-26T06:22:26;10.80;99.90
19437;DHT22;9854;50.968;4.168;2023-03-26T06:24:51;10.70;99.90
19437;DHT22;9854;50.968;4.168;2023-03-26T06:27:17;10.80;99.90
19437;DHT22;9854;50.968;4.168;2023-03-26T06:29:43;10.90;99.90
19437;DHT22;9854;50.968;4.168;2023-03-26T06:32:12;10.80;99.90
19437;DHT22;9854;50.968;4.168;2023-03-26T06:34:38;10.60;99.90
19437;DHT22;9854;50.968;4.168;2023-03-26T06:37:03;10.60;99.90
19437;DHT22;9854;50.968;4.168;2023-03-26T06:39:29;10.80;99.90
19437;DHT22;9854;50.968;4.168;2023-03-26T06:41:55;10.50;99.90
19437;DHT22;9854;50.968;4.168;2023-03-26T06:44:21;10.40;99.90
19437;DHT22;9854;50.968;4.168;2023-03-26T06:46:50;10.30;99.90
19437;DHT22;9854;50.968;4.168;2023-03-26T06:49:18;10.30;99.90
19437;DHT22;9854;50.968;4.168;2023-03-26T06:51:48;10.30;99.90
19437;DHT22;9854;50.968;4.168;2023-03-26T06:54:14;10.40;99.90
19437;DHT22;9854;50.968;4.168;2023-03-26T06:56:45;10.30;99.90
19437;DHT22;9854;50.968;4.168;2023-03-26T06:59:11;10.40;99.90
19437;DHT22;9854;50.968;4.168;2023-03-26T07:01:37;10.40;99.90
19437;DHT22;9854;50.968;4.168;2023-03-26T07:04:02;10.50;99.90
19437;DHT22;9854;50.968;4.168;2023-03-26T07:06:31;10.70;99.90
19437;DHT22;9854;50.968;4.168;2023-03-26T07:08:57;10.70;99.90
19437;DHT22;9854;50.968;4.168;2023-03-26T07:11:22;10.60;99.90
19437;DHT22;9854;50.968;4.168;2023-03-26T07:13:52;10.50;99.90
19437;DHT22;9854;50.968;4.168;2023-03-26T07:16:21;10.50;99.90
19437;DHT22;9854;50.968;4.168;2023-03-26T07:18:50;10.50;99.90
19437;DHT22;9854;50.968;4.168;2023-03-26T07:21:17;10.50;99.90
19437;DHT22;9854;50.968;4.168;2023-03-26T07:23:44;10.40;99.90
19437;DHT22;9854;50.968;4.168;2023-03-26T07:29:04;10.30;99.90
19437;DHT22;9854;50.968;4.168;2023-03-26T07:32:46;10.30;99.90
19437;DHT22;9854;50.968;4.168;2023-03-26T07:34:55;10.20;99.90
19437;DHT22;9854;50.968;4.168;2023-03-26T07:47:53;9.80;99.90
19437;DHT22;9854;50.968;4.168;2023-03-26T07:50:22;9.80;99.90
19437;DHT22;9854;50.968;4.168;2023-03-26T07:52:48;9.90;99.90
19437;DHT22;9854;50.968;4.168;2023-03-26T07:55:15;10.10;99.90
19437;DHT22;9854;50.968;4.168;2023-03-26T07:58:03;10.10;99.90
19437;DHT22;9854;50.968;4.168;2023-03-26T08:00:39;10.20;99.90
19437;DHT22;9854;50.968;4.168;2023-03-26T08:08:59;10.40;99.90
19437;DHT22;9854;50.968;4.168;2023-03-26T08:11:33;10.40;99.90
19437;DHT22;9854;50.968;4.168;2023-03-26T08:19:29;10.50;99.90
19437;DHT22;9854;50.968;4.168;2023-03-26T08:24:39;10.70;99.90
19437;DHT22;9854;50.968;4.168;2023-03-26T08:30:22;10.80;99.90
19437;DHT22;9854;50.968;4.168;2023-03-26T08:33:05;10.90;99.90
19437;DHT22;9854;50.968;4.168;2023-03-26T08:35:38;11.10;99.90
19437;DHT22;9854;50.968;4.168;2023-03-26T08:38:11;11.10;99.90
19437;DHT22;9854;50.968;4.168;2023-03-26T09:09:59;11.20;99.90
19437;DHT22;9854;50.968;4.168;2023-03-26T09:40:52;11.30;99.90
19437;DHT22;9854;50.968;4.168;2023-03-26T09:57:50;11.50;99.90
19437;DHT22;9854;50.968;4.168;2023-03-26T10:00:56;11.50;99.90
19437;DHT22;9854;50.968;4.168;2023-03-26T10:06:24;11.40;99.90
19437;DHT22;9854;50.968;4.168;2023-03-26T10:12:04;11.50;99.90
19437;DHT22;9854;50.968;4.168;2023-03-26T10:17:05;11.80;99.90
19437;DHT22;9854;50.968;4.168;2023-03-26T10:25:34;12.00;99.90
19437;DHT22;9854;50.968;4.168;2023-03-26T10:36:43;12.30;99.90
19437;DHT22;9854;50.968;4.168;2023-03-26T10:47:58;12.30;99.90
19437;DHT22;9854;50.968;4.168;2023-03-26T10:55:41;12.80;99.90
19437;DHT22;9854;50.968;4.168;2023-03-26T10:58:26;12.90;99.90
19437;DHT22;9854;50.968;4.168;2023-03-26T11:01:18;13.00;99.90
19437;DHT22;9854;50.968;4.168;2023-03-26T11:03:54;12.70;99.90
19437;DHT22;9854;50.968;4.168;2023-03-26T11:09:02;13.00;99.90
19437;DHT22;9854;50.968;4.168;2023-03-26T11:11:35;13.20;99.90
19437;DHT22;9854;50.968;4.168;2023-03-26T11:19:56;13.60;99.90
19437;DHT22;9854;50.968;4.168;2023-03-26T11:22:51;13.60;99.90
19437;DHT22;9854;50.968;4.168;2023-03-26T11:33:38;13.00;99.90
19437;DHT22;9854;50.968;4.168;2023-03-26T11:36:09;12.70;99.90
19437;DHT22;9854;50.968;4.168;2023-03-26T11:38:48;12.90;99.90
19437;DHT22;9854;50.968;4.168;2023-03-26T11:41:28;12.60;99.90
19437;DHT22;9854;50.968;4.168;2023-03-26T11:44:00;11.60;99.90
19437;DHT22;9854;50.968;4.168;2023-03-26T11:46:29;11.80;99.90
19437;DHT22;9854;50.968;4.168;2023-03-26T11:49:00;11.90;99.90
19437;DHT22;9854;50.968;4.168;2023-03-26T11:51:38;11.30;99.90
19437;DHT22;9854;50.968;4.168;2023-03-26T11:54:06;11.20;99.90
19437;DHT22;9854;50.968;4.168;2023-03-26T11:57:11;11.40;99.90
19437;DHT22;9854;50.968;4.168;2023-03-26T12:02:29;11.00;99.90
19437;DHT22;9854;50.968;4.168;2023-03-26T12:08:16;12.10;99.90
19437;DHT22;9854;50.968;4.168;2023-03-26T12:10:42;12.10;99.90
19437;DHT22;9854;50.968;4.168;2023-03-26T12:15:49;12.90;99.90
19437;DHT22;9854;50.968;4.168;2023-03-26T12:18:26;13.10;99.90
19437;DHT22;9854;50.968;4.168;2023-03-26T12:21:07;13.30;99.90
19437;DHT22;9854;50.968;4.168;2023-03-26T12:23:56;13.50;99.90
19437;DHT22;9854;50.968;4.168;2023-03-26T12:26:48;12.90;99.90
19437;DHT22;9854;50.968;4.168;2023-03-26T12:29:20;12.90;99.90
19437;DHT22;9854;50.968;4.168;2023-03-26T12:32:02;12.90;99.90
19437;DHT22;9854;50.968;4.168;2023-03-26T12:34:31;12.30;99.90
19437;DHT22;9854;50.968;4.168;2023-03-26T12:36:59;11.70;99.90
19437;DHT22;9854;50.968;4.168;2023-03-26T12:39:27;11.60;99.90
19437;DHT22;9854;50.968;4.168;2023-03-26T12:41:57;11.40;99.90
19437;DHT22;9854;50.968;4.168;2023-03-26T12:44:45;11.10;99.90
19437;DHT22;9854;50.968;4.168;2023-03-26T12:47:29;11.10;99.90
19437;DHT22;9854;50.968;4.168;2023-03-26T12:49:56;11.00;99.90
19437;DHT22;9854;50.968;4.168;2023-03-26T12:57:57;10.60;99.90
19437;DHT22;9854;50.968;4.168;2023-03-26T13:03:20;10.50;99.90
19437;DHT22;9854;50.968;4.168;2023-03-26T13:14:09;10.90;99.90
19437;DHT22;9854;50.968;4.168;2023-03-26T13:16:50;10.80;99.90
19437;DHT22;9854;50.968;4.168;2023-03-26T13:22:24;11.20;99.90
19437;DHT22;9854;50.968;4.168;2023-03-26T13:36:26;10.90;99.90
19437;DHT22;9854;50.968;4.168;2023-03-26T13:47:19;10.40;99.90
19437;DHT22;9854;50.968;4.168;2023-03-26T13:49:49;10.70;99.90
19437;DHT22;9854;50.968;4.168;2023-03-26T13:57:48;11.70;99.90
19437;DHT22;9854;50.968;4.168;2023-03-26T14:00:19;11.60;99.90
19437;DHT22;9854;50.968;4.168;2023-03-26T14:03:32;11.90;99.90
19437;DHT22;9854;50.968;4.168;2023-03-26T14:06:03;11.60;99.90
19437;DHT22;9854;50.968;4.168;2023-03-26T14:08:38;11.20;99.90
19437;DHT22;9854;50.968;4.168;2023-03-26T14:11:19;11.30;99.90
19437;DHT22;9854;50.968;4.168;2023-03-26T14:16:21;10.90;99.90
19437;DHT22;9854;50.968;4.168;2023-03-26T14:27:00;10.60;99.90
19437;DHT22;9854;50.968;4.168;2023-03-26T14:32:22;10.90;99.90
19437;DHT22;9854;50.968;4.168;2023-03-26T14:43:34;11.00;99.90
19437;DHT22;9854;50.968;4.168;2023-03-26T14:49:28;10.80;99.90
19437;DHT22;9854;50.968;4.168;2023-03-26T14:52:14;10.80;99.90
19437;DHT22;9854;50.968;4.168;2023-03-26T14:54:44;10.80;99.90
19437;DHT22;9854;50.968;4.168;2023-03-26T15:03:04;11.10;99.90
19437;DHT22;9854;50.968;4.168;2023-03-26T15:05:46;11.00;99.90
19437;DHT22;9854;50.968;4.168;2023-03-26T15:16:37;10.70;99.90
19437;DHT22;9854;50.968;4.168;2023-03-26T15:30:07;10.00;99.90
19437;DHT22;9854;50.968;4.168;2023-03-26T15:33:16;9.90;99.90
19437;DHT22;9854;50.968;4.168;2023-03-26T15:54:56;10.50;99.90
19437;DHT22;9854;50.968;4.168;2023-03-26T15:57:30;10.90;99.90
19437;DHT22;9854;50.968;4.168;2023-03-26T16:05:55;10.80;99.90
19437;DHT22;9854;50.968;4.168;2023-03-26T16:10:59;11.00;99.90
19437;DHT22;9854;50.968;4.168;2023-03-26T16:16:22;11.20;99.90
19437;DHT22;9854;50.968;4.168;2023-03-26T16:21:54;11.30;99.90
19437;DHT22;9854;50.968;4.168;2023-03-26T16:24:24;11.40;99.90
19437;DHT22;9854;50.968;4.168;2023-03-26T16:29:23;11.10;99.90
19437;DHT22;9854;50.968;4.168;2023-03-26T16:34:58;10.60;99.90
19437;DHT22;9854;50.968;4.168;2023-03-26T16:45:50;10.00;99.90
19437;DHT22;9854;50.968;4.168;2023-03-26T16:48:37;9.80;99.90
19437;DHT22;9854;50.968;4.168;2023-03-26T16:51:15;9.60;99.90
19437;DHT22;9854;50.968;4.168;2023-03-26T16:53:59;9.60;99.90
19437;DHT22;9854;50.968;4.168;2023-03-26T16:59:43;9.60;99.90
19437;DHT22;9854;50.968;4.168;2023-03-26T17:02:25;9.60;99.90
19437;DHT22;9854;50.968;4.168;2023-03-26T17:05:16;9.70;99.90
19437;DHT22;9854;50.968;4.168;2023-03-26T17:08:16;9.70;99.90
19437;DHT22;9854;50.968;4.168;2023-03-26T17:13:47;9.70;99.90
19437;DHT22;9854;50.968;4.168;2023-03-26T17:16:32;9.70;99.90
19437;DHT22;9854;50.968;4.168;2023-03-26T17:24:08;9.90;99.90
19437;DHT22;9854;50.968;4.168;2023-03-26T17:35:45;9.40;99.90
19437;DHT22;9854;50.968;4.168;2023-03-26T17:40:44;9.30;99.90
19437;DHT22;9854;50.968;4.168;2023-03-26T17:43:13;9.20;99.90
19437;DHT22;9854;50.968;4.168;2023-03-26T17:45:56;9.10;99.90
19437;DHT22;9854;50.968;4.168;2023-03-26T17:48:22;9.10;99.90
19437;DHT22;9854;50.968;4.168;2023-03-26T17:51:09;9.00;99.90
19437;DHT22;9854;50.968;4.168;2023-03-26T17:53:40;9.00;99.90
19437;DHT22;9854;50.968;4.168;2023-03-26T17:56:14;8.90;99.90
19437;DHT22;9854;50.968;4.168;2023-03-26T17:58:42;9.00;99.90
19437;DHT22;9854;50.968;4.168;2023-03-26T18:01:43;9.10;99.90
19437;DHT22;9854;50.968;4.168;2023-03-26T18:04:14;9.00;99.90
19437;DHT22;9854;50.968;4.168;2023-03-26T18:09:27;8.80;99.90
19437;DHT22;9854;50.968;4.168;2023-03-26T18:12:06;8.90;99.90
19437;DHT22;9854;50.968;4.168;2023-03-26T18:15:19;8.80;99.90
19437;DHT22;9854;50.968;4.168;2023-03-26T18:17:47;8.70;99.90
19437;DHT22;9854;50.968;4.168;2023-03-26T18:20:24;8.70;99.90
19437;DHT22;9854;50.968;4.168;2023-03-26T18:22:51;8.80;99.90
19437;DHT22;9854;50.968;4.168;2023-03-26T18:25:27;8.80;99.90
19437;DHT22;9854;50.968;4.168;2023-03-26T18:27:55;8.80;99.90
19437;DHT22;9854;50.968;4.168;2023-03-26T18:30:22;8.90;99.90
19437;DHT22;9854;50.968;4.168;2023-03-26T18:33:00;8.90;99.90
19437;DHT22;9854;50.968;4.168;2023-03-26T18:35:37;8.90;99.90
19437;DHT22;9854;50.968;4.168;2023-03-26T18:38:03;8.90;99.90
19437;DHT22;9854;50.968;4.168;2023-03-26T18:40:39;8.60;99.90
19437;DHT22;9854;50.968;4.168;2023-03-26T18:43:10;8.60;99.90
19437;DHT22;9854;50.968;4.168;2023-03-26T18:45:38;8.50;99.90
19437;DHT22;9854;50.968;4.168;2023-03-26T18:50:38;8.50;99.90
19437;DHT22;9854;50.968;4.168;2023-03-26T18:53:06;8.60;99.90
19437;DHT22;9854;50.968;4.168;2023-03-26T18:55:34;8.50;99.90
19437;DHT22;9854;50.968;4.168;2023-03-26T18:58:30;8.50;99.90
19437;DHT22;9854;50.968;4.168;2023-03-26T19:01:05;8.50;99.90
19437;DHT22;9854;50.968;4.168;2023-03-26T19:03:33;8.50;99.90
19437;DHT22;9854;50.968;4.168;2023-03-26T19:06:01;8.40;99.90
19437;DHT22;9854;50.968;4.168;2023-03-26T19:08:30;8.30;99.90
19437;DHT22;9854;50.968;4.168;2023-03-26T19:10:57;8.40;99.90
19437;DHT22;9854;50.968;4.168;2023-03-26T19:13:26;8.30;99.90
19437;DHT22;9854;50.968;4.168;2023-03-26T19:15:53;8.20;99.90
19437;DHT22;9854;50.968;4.168;2023-03-26T19:18:25;8.30;99.90
19437;DHT22;9854;50.968;4.168;2023-03-26T19:20:58;8.30;99.90
19437;DHT22;9854;50.968;4.168;2023-03-26T19:23:34;8.30;99.90
19437;DHT22;9854;50.968;4.168;2023-03-26T19:26:03;8.20;99.90
19437;DHT22;9854;50.968;4.168;2023-03-26T19:28:34;8.40;99.90
19437;DHT22;9854;50.968;4.168;2023-03-26T19:33:40;8.20;99.90
19437;DHT22;9854;50.968;4.168;2023-03-26T19:38:43;8.30;99.90
19437;DHT22;9854;50.968;4.168;2023-03-26T19:41:26;8.40;99.90
19437;DHT22;9854;50.968;4.168;2023-03-26T19:43:59;8.50;99.90
19437;DHT22;9854;50.968;4.168;2023-03-26T19:46:27;8.50;99.90
19437;DHT22;9854;50.968;4.168;2023-03-26T19:48:56;8.60;99.90
19437;DHT22;9854;50.968;4.168;2023-03-26T19:51:35;8.70;99.90
19437;DHT22;9854;50.968;4.168;2023-03-26T19:54:14;8.60;99.90
19437;DHT22;9854;50.968;4.168;2023-03-26T19:56:41;8.80;99.90
19437;DHT22;9854;50.968;4.168;2023-03-26T19:59:07;9.00;99.90
19437;DHT22;9854;50.968;4.168;2023-03-26T20:01:33;9.10;99.90
19437;DHT22;9854;50.968;4.168;2023-03-26T20:04:01;8.90;99.90
19437;DHT22;9854;50.968;4.168;2023-03-26T20:06:28;8.80;99.90
19437;DHT22;9854;50.968;4.168;2023-03-26T20:08:54;8.50;99.90
19437;DHT22;9854;50.968;4.168;2023-03-26T20:11:26;8.50;99.90
19437;DHT22;9854;50.968;4.168;2023-03-26T20:13:58;8.60;99.90
19437;DHT22;9854;50.968;4.168;2023-03-26T20:16:31;8.80;99.90
19437;DHT22;9854;50.968;4.168;2023-03-26T20:18:58;8.40;99.90
19437;DHT22;9854;50.968;4.168;2023-03-26T20:21:27;8.40;99.90
19437;DHT22;9854;50.968;4.168;2023-03-26T20:23:54;8.40;99.90
19437;DHT22;9854;50.968;4.168;2023-03-26T20:26:22;8.20;99.90
19437;DHT22;9854;50.968;4.168;2023-03-26T20:28:48;8.30;99.90
19437;DHT22;9854;50.968;4.168;2023-03-26T20:31:16;8.30;99.90
19437;DHT22;9854;50.968;4.168;2023-03-26T20:33:43;8.40;99.90
19437;DHT22;9854;50.968;4.168;2023-03-26T20:36:11;8.20;99.90
19437;DHT22;9854;50.968;4.168;2023-03-26T20:38:38;8.20;99.90
19437;DHT22;9854;50.968;4.168;2023-03-26T20:41:06;8.10;99.90
19437;DHT22;9854;50.968;4.168;2023-03-26T20:43:34;8.20;99.90
19437;DHT22;9854;50.968;4.168;2023-03-26T20:45:59;8.20;99.90
19437;DHT22;9854;50.968;4.168;2023-03-26T20:48:26;8.10;99.90
19437;DHT22;9854;50.968;4.168;2023-03-26T20:50:51;8.00;99.90
19437;DHT22;9854;50.968;4.168;2023-03-26T20:53:18;7.90;99.90
19437;DHT22;9854;50.968;4.168;2023-03-26T20:55:45;7.90;99.90
19437;DHT22;9854;50.968;4.168;2023-03-26T20:58:15;8.00;99.90
19437;DHT22;9854;50.968;4.168;2023-03-26T21:00:43;8.00;99.90
19437;DHT22;9854;50.968;4.168;2023-03-26T21:03:12;7.90;99.90
19437;DHT22;9854;50.968;4.168;2023-03-26T21:05:38;7.70;99.90
19437;DHT22;9854;50.968;4.168;2023-03-26T21:08:06;7.70;99.90
19437;DHT22;9854;50.968;4.168;2023-03-26T21:10:32;7.60;99.90
19437;DHT22;9854;50.968;4.168;2023-03-26T21:13:09;7.40;99.90
19437;DHT22;9854;50.968;4.168;2023-03-26T21:15:36;7.40;99.90
19437;DHT22;9854;50.968;4.168;2023-03-26T21:18:02;7.30;99.90
19437;DHT22;9854;50.968;4.168;2023-03-26T21:20:28;7.20;99.90
19437;DHT22;9854;50.968;4.168;2023-03-26T21:30:31;6.90;99.90
19437;DHT22;9854;50.968;4.168;2023-03-26T21:32:57;6.90;99.90
19437;DHT22;9854;50.968;4.168;2023-03-26T21:35:24;6.80;99.90
19437;DHT22;9854;50.968;4.168;2023-03-26T21:37:51;6.80;99.90
19437;DHT22;9854;50.968;4.168;2023-03-26T21:40:18;6.80;99.90
19437;DHT22;9854;50.968;4.168;2023-03-26T21:42:49;6.70;99.90
19437;DHT22;9854;50.968;4.168;2023-03-26T21:45:16;6.70;99.90
19437;DHT22;9854;50.968;4.168;2023-03-26T21:47:43;6.60;99.90
19437;DHT22;9854;50.968;4.168;2023-03-26T21:50:12;6.50;99.90
19437;DHT22;9854;50.968;4.168;2023-03-26T21:52:38;6.50;99.90
19437;DHT22;9854;50.968;4.168;2023-03-26T22:03:51;6.40;99.90
19437;DHT22;9854;50.968;4.168;2023-03-26T22:06:27;6.40;99.90
19437;DHT22;9854;50.968;4.168;2023-03-26T22:08:56;6.40;99.90
19437;DHT22;9854;50.968;4.168;2023-03-26T22:11:23;6.40;99.90
19437;DHT22;9854;50.968;4.168;2023-03-26T22:13:49;6.40;99.90
19437;DHT22;9854;50.968;4.168;2023-03-26T22:16:15;6.40;99.90
19437;DHT22;9854;50.968;4.168;2023-03-26T22:18:41;6.40;99.90
19437;DHT22;9854;50.968;4.168;2023-03-26T22:21:08;6.30;99.90
19437;DHT22;9854;50.968;4.168;2023-03-26T22:23:34;6.20;99.90
19437;DHT22;9854;50.968;4.168;2023-03-26T22:26:01;6.20;99.90
19437;DHT22;9854;50.968;4.168;2023-03-26T22:28:29;6.20;99.90
19437;DHT22;9854;50.968;4.168;2023-03-26T22:30:54;6.10;99.90
19437;DHT22;9854;50.968;4.168;2023-03-26T22:33:21;6.30;99.90